Terminal Aerodrome Forecast
Issued by NWS

Home | Current Version | Previous Version | Graphics & Text | Print | Product List | Glossary On
Versions: 1 2 3 4 5 6 7 8 9 10 11 12 13
000
FTUS45 KGGW 232330
TAFGDV
TAF
KGDV 232330Z 2400/2424 14008KT P6SM FEW250
     FM240700 15011KT P6SM FEW250 WS020/16040KT
     FM241600 25012KT P6SM FEW250
     FM241800 31013KT P6SM FEW250=

USA.gov is the U.S. government's official web portal to all federal, state and local government web resources and services.